Time;durP1;ratioP1;P1;durP2;ratioP2;P2;SDS_P1;SDS_P2;PMS_P1;PMS_P2;Temp;Humidity;BMP_temperature;BMP_pressure;BME280_temperature;BME280_humidity;BME280_pressure;Samples;Min_cycle;Max_cycle;Signal;HPM_P1;HPM_P2
2023/12/31 00:00:58;;;;;;;6.57;3.53;;;8.00;99.90;;;;;;4996097;28;20049;-84
2023/12/31 00:03:24;;;;;;;6.32;3.35;;;8.00;99.90;;;;;;4996417;28;20061;-85
2023/12/31 00:05:49;;;;;;;7.90;3.78;;;10.30;99.90;;;;;;5007231;28;20026;-87
2023/12/31 00:08:15;;;;;;;6.47;3.20;;;8.00;99.90;;;;;;5013591;28;20030;-85
2023/12/31 00:10:41;;;;;;;5.32;3.10;;;7.90;99.90;;;;;;5029430;28;20022;-84
2023/12/31 00:13:06;;;;;;;8.07;3.45;;;9.50;99.90;;;;;;5019782;28;20045;-83
2023/12/31 00:15:32;;;;;;;5.82;3.40;;;8.30;99.90;;;;;;5014585;28;20022;-82
2023/12/31 00:17:58;;;;;;;6.55;3.67;;;9.80;99.90;;;;;;5027686;28;20026;-85
2023/12/31 00:20:23;;;;;;;6.93;3.50;;;9.20;99.90;;;;;;5029464;28;20085;-82
2023/12/31 00:22:49;;;;;;;6.93;3.40;;;8.10;99.90;;;;;;5028113;28;20076;-85
2023/12/31 00:25:15;;;;;;;5.55;3.10;;;7.90;99.90;;;;;;5004285;28;20017;-86
2023/12/31 00:27:41;;;;;;;4.50;2.88;;;8.00;99.90;;;;;;5021749;28;20529;-85
2023/12/31 00:30:08;;;;;;;6.25;3.53;;;9.10;99.90;;;;;;5005736;28;20036;-83
2023/12/31 00:32:34;;;;;;;8.52;3.65;;;7.90;99.90;;;;;;5018533;28;20026;-87
2023/12/31 00:34:59;;;;;;;6.93;3.17;;;10.90;99.90;;;;;;4999526;28;20120;-84
2023/12/31 00:37:25;;;;;;;6.97;3.03;;;8.00;99.90;;;;;;5000468;28;20560;-84
2023/12/31 00:39:51;;;;;;;7.30;3.33;;;8.30;99.90;;;;;;5014006;28;20120;-82
2023/12/31 00:42:17;;;;;;;9.05;4.93;;;9.20;99.90;;;;;;5012080;28;20030;-85
2023/12/31 00:44:42;;;;;;;7.85;3.67;;;9.00;99.90;;;;;;5018859;28;20025;-85
2023/12/31 00:47:08;;;;;;;7.43;3.95;;;10.50;99.90;;;;;;5014885;28;20119;-86
2023/12/31 00:49:34;;;;;;;5.68;3.10;;;;;;;;;;5013612;28;20023;-87
2023/12/31 00:52:00;;;;;;;5.25;3.13;;;8.00;99.90;;;;;;5015424;28;20509;-85
2023/12/31 00:54:25;;;;;;;4.32;2.80;;;9.40;99.90;;;;;;4997443;28;20026;-85
2023/12/31 00:56:51;;;;;;;5.20;3.03;;;10.50;99.90;;;;;;5012346;28;20038;-87
2023/12/31 00:59:17;;;;;;;5.03;2.83;;;8.00;99.90;;;;;;4999256;28;20544;-87
2023/12/31 01:01:42;;;;;;;4.70;2.40;;;9.30;99.90;;;;;;5002821;28;20030;-84
2023/12/31 01:04:08;;;;;;;4.97;2.60;;;9.60;99.90;;;;;;5014076;28;20030;-84
2023/12/31 01:06:34;;;;;;;7.55;3.88;;;10.40;99.90;;;;;;5007584;28;20030;-88
2023/12/31 01:08:59;;;;;;;10.30;5.32;;;8.20;99.90;;;;;;5001110;28;20077;-86
2023/12/31 01:11:27;;;;;;;10.52;5.47;;;10.80;99.90;;;;;;5003193;28;20072;-84
2023/12/31 01:13:53;;;;;;;7.75;3.72;;;9.90;99.90;;;;;;5017870;28;20034;-83
2023/12/31 01:16:18;;;;;;;6.03;2.95;;;10.30;99.90;;;;;;5014279;28;20060;-84
2023/12/31 01:18:44;;;;;;;5.55;2.55;;;8.30;99.90;;;;;;5016600;28;20065;-83
2023/12/31 01:21:10;;;;;;;5.80;2.90;;;8.40;99.90;;;;;;4999348;28;20052;-86
2023/12/31 01:23:35;;;;;;;5.43;2.40;;;8.30;99.90;;;;;;4988244;28;20033;-83
2023/12/31 01:26:02;;;;;;;4.05;2.00;;;8.30;99.90;;;;;;5024675;28;20502;-84
2023/12/31 01:28:27;;;;;;;4.43;2.20;;;8.30;99.90;;;;;;5025810;28;20026;-85
2023/12/31 01:30:53;;;;;;;5.40;2.30;;;9.70;99.90;;;;;;5025803;28;20055;-84
2023/12/31 01:33:19;;;;;;;7.65;2.63;;;8.30;99.90;;;;;;5011425;28;20026;-82
2023/12/31 01:35:45;;;;;;;4.18;2.30;;;;;;;;;;5023786;28;20018;-82
2023/12/31 01:38:11;;;;;;;5.35;2.45;;;;;;;;;;5022123;28;20064;-84
2023/12/31 01:40:36;;;;;;;5.13;2.42;;;8.20;99.90;;;;;;5005810;28;20045;-85
2023/12/31 01:43:02;;;;;;;3.58;2.20;;;8.20;99.90;;;;;;5012071;28;20033;-84
2023/12/31 01:45:30;;;;;;;5.25;2.28;;;8.10;99.90;;;;;;5022632;28;20501;-87
2023/12/31 01:47:56;;;;;;;4.40;2.22;;;;;;;;;;5008248;28;20037;-82
2023/12/31 01:50:23;;;;;;;9.48;3.58;;;8.10;99.90;;;;;;5003961;28;20022;-86
2023/12/31 01:52:50;;;;;;;5.78;2.30;;;10.50;99.90;;;;;;5028931;28;20085;-86
2023/12/31 01:55:16;;;;;;;4.13;2.33;;;8.70;99.90;;;;;;5024761;28;20060;-82
2023/12/31 01:57:42;;;;;;;5.63;2.53;;;;;;;;;;5012133;28;20025;-84
2023/12/31 02:00:09;;;;;;;3.97;2.20;;;8.10;99.90;;;;;;5012153;28;20021;-86
2023/12/31 02:02:35;;;;;;;3.58;2.15;;;8.10;99.90;;;;;;5025687;28;20031;-84
2023/12/31 02:05:01;;;;;;;4.57;2.30;;;8.80;99.90;;;;;;5006719;28;20088;-80
2023/12/31 02:07:27;;;;;;;4.32;2.30;;;;;;;;;;5023581;28;20093;-85
2023/12/31 02:09:56;;;;;;;5.95;2.65;;;8.20;99.90;;;;;;5009987;28;20049;-85
2023/12/31 02:12:22;;;;;;;4.43;2.30;;;8.20;99.90;;;;;;5026776;28;20045;-85
2023/12/31 02:14:48;;;;;;;4.28;2.35;;;9.60;99.90;;;;;;5021139;28;20048;-85
2023/12/31 02:17:14;;;;;;;4.38;2.30;;;8.10;99.90;;;;;;5011112;28;20022;-85
2023/12/31 02:19:39;;;;;;;4.53;2.80;;;8.60;99.90;;;;;;5012768;28;20030;-85
2023/12/31 02:22:08;;;;;;;4.03;2.20;;;8.40;99.90;;;;;;5026661;28;20025;-86
2023/12/31 02:24:47;;;;;;;4.85;2.60;;;9.80;99.90;;;;;;5024547;28;20094;-84
2023/12/31 02:27:12;;;;;;;4.50;2.45;;;9.00;99.90;;;;;;5027354;28;20034;-81
2023/12/31 02:29:38;;;;;;;3.90;2.42;;;8.20;99.90;;;;;;5009632;28;20030;-85
2023/12/31 02:32:04;;;;;;;4.35;2.40;;;10.60;99.90;;;;;;5025696;28;20038;-85
2023/12/31 02:34:29;;;;;;;3.55;2.25;;;8.20;99.90;;;;;;5000681;28;20033;-84
2023/12/31 02:36:55;;;;;;;6.22;2.65;;;8.30;99.90;;;;;;5021423;28;20125;-87
2023/12/31 02:39:21;;;;;;;5.53;2.60;;;8.20;99.90;;;;;;5025166;28;20021;-88
2023/12/31 02:41:47;;;;;;;4.22;2.35;;;8.30;99.90;;;;;;5027281;28;20052;-85
2023/12/31 02:44:13;;;;;;;5.13;2.58;;;8.20;99.90;;;;;;5019912;28;20030;-86
2023/12/31 02:46:38;;;;;;;5.40;2.58;;;8.80;99.90;;;;;;5012924;28;20037;-86
2023/12/31 02:49:06;;;;;;;4.05;2.50;;;9.10;99.90;;;;;;5012284;28;20483;-85
2023/12/31 02:51:33;;;;;;;4.22;2.60;;;9.40;99.90;;;;;;5010971;28;20029;-85
2023/12/31 02:53:58;;;;;;;4.80;2.60;;;8.50;99.90;;;;;;5026701;28;20017;-86
2023/12/31 02:56:24;;;;;;;5.75;2.80;;;9.50;99.90;;;;;;5006103;28;20049;-85
2023/12/31 02:58:49;;;;;;;5.82;2.40;;;9.70;99.90;;;;;;5022687;28;20026;-84
2023/12/31 03:01:15;;;;;;;3.90;2.50;;;8.20;99.90;;;;;;5010179;28;20043;-87
2023/12/31 03:03:40;;;;;;;4.45;2.72;;;8.20;99.90;;;;;;5026772;28;20025;-86
2023/12/31 03:06:06;;;;;;;4.63;2.80;;;;;;;;;;5007992;28;20041;-88
2023/12/31 03:08:32;;;;;;;4.93;2.58;;;8.20;99.90;;;;;;5022579;28;20417;-87
2023/12/31 03:10:58;;;;;;;5.07;2.72;;;8.50;99.90;;;;;;5014462;28;20061;-89
2023/12/31 03:13:24;;;;;;;4.38;2.50;;;;;;;;;;5004949;28;20034;-87
2023/12/31 03:15:49;;;;;;;4.30;2.65;;;8.20;99.90;;;;;;5011499;28;20031;-87
2023/12/31 03:18:15;;;;;;;4.15;2.42;;;9.90;99.90;;;;;;5013603;28;20026;-83
2023/12/31 03:20:40;;;;;;;4.03;2.00;;;8.20;99.90;;;;;;5017424;28;20029;-86
2023/12/31 03:23:06;;;;;;;4.20;2.10;;;;;;;;;;5015998;28;20498;-87
2023/12/31 03:25:32;;;;;;;4.45;2.28;;;8.30;99.90;;;;;;5014613;28;20022;-86
2023/12/31 03:27:58;;;;;;;5.65;2.47;;;;;;;;;;5002343;28;20068;-86
2023/12/31 03:30:23;;;;;;;3.15;2.13;;;8.40;99.90;;;;;;5019079;28;20025;-88
2023/12/31 03:32:49;;;;;;;3.67;2.05;;;8.70;99.90;;;;;;4986275;28;20041;-85
2023/12/31 03:35:15;;;;;;;3.85;2.35;;;8.50;99.90;;;;;;5002779;28;20053;-84
2023/12/31 03:37:46;;;;;;;4.57;2.50;;;;;;;;;;5000633;28;20037;-87
2023/12/31 03:40:12;;;;;;;4.15;2.42;;;8.40;99.90;;;;;;5018990;28;20021;-87
2023/12/31 03:42:38;;;;;;;4.03;2.25;;;8.50;99.90;;;;;;4998484;28;20030;-86
2023/12/31 03:45:04;;;;;;;2.97;2.00;;;10.50;99.90;;;;;;5012700;28;20029;-86
2023/12/31 03:47:30;;;;;;;3.67;1.85;;;8.60;99.90;;;;;;4990577;28;20018;-85
2023/12/31 03:49:55;;;;;;;5.90;2.10;;;9.60;99.90;;;;;;5010419;28;20033;-84
2023/12/31 03:52:21;;;;;;;3.75;2.15;;;9.10;99.90;;;;;;5018277;28;20034;-86
2023/12/31 03:54:47;;;;;;;3.42;2.00;;;10.00;99.90;;;;;;5005045;28;20424;-85
2023/12/31 03:57:14;;;;;;;3.53;2.03;;;9.70;99.90;;;;;;5024243;28;20513;-88
2023/12/31 03:59:39;;;;;;;3.53;1.92;;;8.90;99.90;;;;;;5012717;28;20117;-87
2023/12/31 04:02:05;;;;;;;3.50;1.80;;;8.90;99.90;;;;;;4994516;28;20057;-86
2023/12/31 04:04:31;;;;;;;3.33;1.90;;;9.90;99.90;;;;;;5012104;28;20022;-88
2023/12/31 04:06:56;;;;;;;3.30;1.92;;;9.00;99.90;;;;;;5018707;28;20077;-87
2023/12/31 04:09:22;;;;;;;3.40;1.83;;;9.80;99.90;;;;;;5012768;28;20034;-84
2023/12/31 04:11:47;;;;;;;4.03;1.90;;;9.00;99.90;;;;;;5014755;28;20051;-84
2023/12/31 04:14:13;;;;;;;3.85;1.88;;;;;;;;;;4995845;28;20026;-87
2023/12/31 04:16:39;;;;;;;4.38;1.90;;;9.00;99.90;;;;;;5008505;28;20116;-84
2023/12/31 04:19:05;;;;;;;3.72;1.90;;;8.90;99.90;;;;;;5019469;28;20053;-84
2023/12/31 04:21:30;;;;;;;4.07;2.20;;;8.90;99.90;;;;;;5009541;28;20030;-85
2023/12/31 04:23:56;;;;;;;3.70;1.80;;;8.90;99.90;;;;;;5011499;28;20030;-86
2023/12/31 04:26:22;;;;;;;6.78;2.53;;;;;;;;;;4996663;28;20066;-83
2023/12/31 04:28:47;;;;;;;3.33;1.90;;;8.90;99.90;;;;;;5008745;28;20018;-87
2023/12/31 04:31:13;;;;;;;4.32;2.10;;;11.40;99.90;;;;;;5000367;28;20097;-87
2023/12/31 04:33:39;;;;;;;3.33;1.77;;;;;;;;;;5020373;28;20037;-86
2023/12/31 04:36:05;;;;;;;2.67;1.60;;;9.10;99.90;;;;;;5017427;28;20033;-85
2023/12/31 04:38:32;;;;;;;4.07;1.77;;;;;;;;;;5003882;28;20037;-87
2023/12/31 04:40:58;;;;;;;4.25;2.00;;;9.20;99.90;;;;;;5003216;28;20054;-86
2023/12/31 04:43:23;;;;;;;2.58;1.67;;;10.60;99.90;;;;;;5003175;28;20446;-85
2023/12/31 04:45:49;;;;;;;2.72;1.75;;;11.20;99.90;;;;;;5001804;28;20079;-87
2023/12/31 04:48:15;;;;;;;3.03;1.65;;;9.40;99.90;;;;;;5018962;28;20053;-85
2023/12/31 04:50:42;;;;;;;3.45;1.90;;;;;;;;;;5017756;28;20466;-84
2023/12/31 04:53:08;;;;;;;3.28;1.70;;;9.70;99.90;;;;;;5022583;28;20029;-88
2023/12/31 04:55:34;;;;;;;3.40;1.90;;;9.70;99.90;;;;;;5008085;28;20021;-86
2023/12/31 04:58:00;;;;;;;5.30;2.30;;;;;;;;;;5012735;28;20023;-86
2023/12/31 05:00:25;;;;;;;5.85;2.20;;;9.80;99.90;;;;;;5018898;28;20104;-86
2023/12/31 05:02:52;;;;;;;3.00;1.80;;;;;;;;;;5020260;28;20061;-87
2023/12/31 05:05:17;;;;;;;2.65;1.90;;;9.90;99.90;;;;;;5018851;28;20490;-87
2023/12/31 05:07:43;;;;;;;4.05;2.20;;;9.90;99.90;;;;;;5016330;28;20018;-85
2023/12/31 05:10:09;;;;;;;3.90;2.20;;;11.60;99.90;;;;;;5021478;28;20061;-87
2023/12/31 05:12:34;;;;;;;3.85;2.30;;;10.50;99.90;;;;;;5014061;28;20018;-87
2023/12/31 05:15:00;;;;;;;2.95;1.95;;;9.90;99.90;;;;;;5009163;28;20033;-86
2023/12/31 05:17:26;;;;;;;5.57;2.38;;;9.90;99.90;;;;;;5014092;28;20046;-85
2023/12/31 05:19:52;;;;;;;5.15;2.20;;;10.00;99.90;;;;;;5003472;28;20177;-86
2023/12/31 05:22:18;;;;;;;3.42;2.17;;;10.80;99.90;;;;;;5009767;28;20124;-87
2023/12/31 05:24:44;;;;;;;3.38;2.13;;;;;;;;;;5004933;28;20060;-83
2023/12/31 05:27:09;;;;;;;4.38;2.30;;;9.90;99.90;;;;;;5022805;28;20022;-86
2023/12/31 05:29:35;;;;;;;3.42;2.10;;;;;;;;;;5020176;28;20022;-86
2023/12/31 05:32:01;;;;;;;4.03;2.58;;;;;;;;;;5021367;28;20037;-87
2023/12/31 05:34:27;;;;;;;4.18;2.70;;;9.90;99.90;;;;;;5016793;28;20037;-84
2023/12/31 05:36:53;;;;;;;5.93;2.90;;;9.90;99.90;;;;;;4999510;28;20026;-86
2023/12/31 05:39:18;;;;;;;5.80;2.80;;;9.80;99.90;;;;;;5017807;28;20552;-87
2023/12/31 05:41:44;;;;;;;6.10;3.42;;;10.00;99.90;;;;;;5003294;28;20057;-86
2023/12/31 05:44:09;;;;;;;5.05;3.20;;;10.00;99.90;;;;;;4993102;28;20031;-86
2023/12/31 05:46:35;;;;;;;5.90;3.40;;;10.10;99.90;;;;;;5013291;28;20057;-88
2023/12/31 05:49:00;;;;;;;5.10;3.20;;;10.40;99.90;;;;;;5022728;28;20029;-87
2023/12/31 05:51:26;;;;;;;5.82;3.30;;;9.90;99.90;;;;;;5009657;28;20044;-85
2023/12/31 05:53:52;;;;;;;5.57;3.65;;;11.40;99.90;;;;;;5029345;28;20026;-86
2023/12/31 05:56:18;;;;;;;6.20;3.38;;;;;;;;;;5013346;28;20038;-88
2023/12/31 05:58:46;;;;;;;6.60;3.50;;;9.90;99.90;;;;;;5010331;28;20117;-87
2023/12/31 06:01:12;;;;;;;6.20;3.60;;;10.40;99.90;;;;;;5006586;28;20045;-88
2023/12/31 06:03:38;;;;;;;6.05;3.55;;;10.00;99.90;;;;;;5016847;28;20034;-87
2023/12/31 06:06:04;;;;;;;6.90;4.25;;;9.90;99.90;;;;;;5002089;28;20072;-88
2023/12/31 06:08:29;;;;;;;6.20;3.88;;;10.00;99.90;;;;;;5018802;28;20116;-83
2023/12/31 06:10:55;;;;;;;7.22;3.88;;;11.70;99.90;;;;;;5001286;28;20029;-85
2023/12/31 06:13:21;;;;;;;8.38;4.30;;;10.60;99.90;;;;;;4999728;28;20033;-85
2023/12/31 06:15:46;;;;;;;6.78;3.53;;;11.60;99.90;;;;;;5007459;28;20100;-88
2023/12/31 06:18:12;;;;;;;7.03;3.83;;;;;;;;;;5007138;28;20113;-87
2023/12/31 06:20:38;;;;;;;7.15;3.92;;;10.00;99.90;;;;;;5016081;28;20038;-86
2023/12/31 06:23:04;;;;;;;6.00;4.00;;;;;;;;;;5016279;28;20057;-86
2023/12/31 06:25:30;;;;;;;6.13;3.67;;;;;;;;;;5012419;28;20153;-87
2023/12/31 06:28:35;;;;;;;7.05;4.05;;;10.10;99.90;;;;;;5024194;28;20025;-87
2023/12/31 06:31:07;;;;;;;6.53;3.97;;;;;;;;;;4999150;28;20050;-88
2023/12/31 06:33:33;;;;;;;6.25;3.83;;;;;;;;;;5003591;28;20121;-88
2023/12/31 06:36:07;;;;;;;9.13;3.53;;;;;;;;;;5021469;28;20093;-87
2023/12/31 06:38:36;;;;;;;5.93;3.70;;;10.20;99.90;;;;;;5014250;28;20038;-86
2023/12/31 06:41:07;;;;;;;6.40;3.90;;;;;;;;;;5023039;28;20030;-87
2023/12/31 06:43:35;;;;;;;;;;;;;;;;;;5009215;28;20027;-86
2023/12/31 06:46:14;;;;;;;6.20;3.25;;;;;;;;;;5002707;28;19912;-85
2023/12/31 06:48:40;;;;;;;8.65;3.38;;;;;;;;;;4995784;28;20026;-85
2023/12/31 06:54:50;;;;;;;6.50;4.07;;;10.40;99.90;;;;;;5013390;28;20022;-85
2023/12/31 06:57:19;;;;;;;6.75;3.97;;;11.30;99.90;;;;;;5016097;28;20713;-87
2023/12/31 06:59:45;;;;;;;6.60;3.65;;;10.50;99.90;;;;;;5006251;28;20022;-85
2023/12/31 07:02:10;;;;;;;5.95;3.92;;;11.50;99.90;;;;;;5011374;28;20049;-85
2023/12/31 07:04:36;;;;;;;6.47;3.80;;;10.80;99.90;;;;;;5024603;28;20104;-87
2023/12/31 07:07:02;;;;;;;6.55;3.78;;;;;;;;;;5019027;28;20030;-86
2023/12/31 07:09:28;;;;;;;8.25;3.92;;;10.40;99.90;;;;;;5016845;28;20022;-86
2023/12/31 07:11:54;;;;;;;6.60;4.05;;;10.40;99.90;;;;;;5024308;28;20026;-87
2023/12/31 10:05:30;;;;;;;5.68;1.50;;;10.30;99.90;;;;;;6213216;23;20051;-80
2023/12/31 10:07:57;;;;;;;3.03;1.45;;;13.60;99.90;;;;;;6216808;23;20017;-79
2023/12/31 10:10:27;;;;;;;2.40;1.42;;;10.20;99.90;;;;;;6189175;23;20040;-79
2023/12/31 10:12:53;;;;;;;2.67;1.50;;;;;;;;;;6214548;23;20041;-79
2023/12/31 10:15:20;;;;;;;2.58;1.30;;;;;;;;;;6216035;23;20000;-79
2023/12/31 10:17:47;;;;;;;2.03;1.10;;;;;;;;;;6213495;23;20012;-78
2023/12/31 10:20:13;;;;;;;2.85;1.30;;;;;;;;;;6213166;23;20083;-79
2023/12/31 10:22:39;;;;;;;2.65;1.00;;;;;;;;;;6214532;23;20132;-79
2023/12/31 10:25:18;;;;;;;2.03;1.13;;;9.90;99.90;;;;;;6215485;23;20260;-80
2023/12/31 10:27:49;;;;;;;3.43;1.10;;;9.80;99.90;;;;;;6214035;23;20116;-81
2023/12/31 10:30:15;;;;;;;3.17;1.60;;;;;;;;;;6214437;23;20001;-80
2023/12/31 10:33:10;;;;;;;4.88;1.27;;;9.80;99.90;;;;;;6215166;23;20005;-80
2023/12/31 10:35:37;;;;;;;12.38;6.43;;;9.90;99.90;;;;;;6194195;23;20087;-80
2023/12/31 10:38:04;;;;;;;7.57;4.05;;;;;;;;;;6189168;23;20005;-79
2023/12/31 10:40:33;;;;;;;3.60;1.48;;;;;;;;;;6163345;23;20000;-79
2023/12/31 10:43:02;;;;;;;22.88;12.75;;;9.60;99.90;;;;;;6215842;23;20027;-79
2023/12/31 10:45:32;;;;;;;4.53;1.55;;;9.70;99.90;;;;;;6189334;23;20015;-79
2023/12/31 10:48:01;;;;;;;5.38;1.98;;;9.70;99.90;;;;;;6164435;23;20005;-79
2023/12/31 10:50:28;;;;;;;9.93;3.85;;;;;;;;;;6214415;23;20009;-78
2023/12/31 10:52:57;;;;;;;33.67;13.68;;;9.70;99.90;;;;;;6212887;23;20019;-79
2023/12/31 10:55:26;;;;;;;4.65;1.55;;;9.70;99.90;;;;;;6214293;23;20007;-79
2023/12/31 10:57:52;;;;;;;2.80;1.02;;;;;;;;;;6215064;23;20528;-79
2023/12/31 11:00:19;;;;;;;4.88;2.42;;;;;;;;;;6214417;23;20021;-79
2023/12/31 11:02:46;;;;;;;5.13;1.15;;;9.80;99.90;;;;;;6212384;23;19997;-80
2023/12/31 11:08:17;;;;;;;4.78;1.35;;;;;;;;;;6215498;23;20009;-79
2023/12/31 11:10:44;;;;;;;5.88;1.40;;;;;;;;;;6189560;23;20255;-80
2023/12/31 11:13:15;;;;;;;2.33;1.10;;;;;;;;;;6214365;23;20001;-80
2023/12/31 11:15:42;;;;;;;3.28;0.90;;;9.70;99.90;;;;;;6216439;23;20320;-80
2023/12/31 11:18:38;;;;;;;3.97;1.60;;;;;;;;;;6215767;23;20458;-80
2023/12/31 11:21:08;;;;;;;2.55;1.05;;;;;;;;;;6190732;23;20008;-80
2023/12/31 11:24:00;;;;;;;2.55;0.90;;;9.80;99.90;;;;;;6213109;23;20440;-78
2023/12/31 11:26:27;;;;;;;1.00;0.82;;;;;;;;;;6216102;23;20498;-79
2023/12/31 11:28:55;;;;;;;3.60;1.13;;;;;;;;;;6214480;23;20051;-79
2023/12/31 11:31:21;;;;;;;4.57;1.25;;;;;;;;;;6214277;23;20008;-78
2023/12/31 11:33:47;;;;;;;3.30;1.00;;;;;;;;;;6211698;23;19997;-79
2023/12/31 11:36:15;;;;;;;5.28;1.10;;;9.90;99.90;;;;;;6214792;23;19997;-79
2023/12/31 11:38:50;;;;;;;1.92;0.77;;;9.90;99.90;;;;;;6215691;23;20004;-80
2023/12/31 11:41:22;;;;;;;2.70;0.80;;;10.00;99.90;;;;;;6213847;23;20460;-79
2023/12/31 11:43:53;;;;;;;2.17;0.60;;;;;;;;;;6216347;23;20013;-79
2023/12/31 11:46:37;;;;;;;1.75;0.82;;;;;;;;;;6217805;23;20079;-80
2023/12/31 11:49:04;;;;;;;3.90;1.00;;;;;;;;;;6216647;23;20004;-80
2023/12/31 11:51:54;;;;;;;5.18;0.98;;;10.00;99.90;;;;;;6218033;23;20004;-80
2023/12/31 11:54:33;;;;;;;2.90;0.95;;;9.90;99.90;;;;;;6201980;23;20052;-80
2023/12/31 11:56:59;;;;;;;2.85;0.90;;;;;;;;;;6217675;23;20043;-79
2023/12/31 11:59:25;;;;;;;4.45;1.00;;;;;;;;;;6217520;23;20377;-79
2023/12/31 12:01:54;;;;;;;4.35;1.00;;;9.90;99.90;;;;;;6219416;23;20058;-79
2023/12/31 12:04:23;;;;;;;2.67;0.93;;;11.40;99.90;;;;;;6196450;23;20020;-81
2023/12/31 12:06:50;;;;;;;2.17;0.88;;;10.00;99.90;;;;;;6193740;23;20013;-80
2023/12/31 12:09:21;;;;;;;4.85;1.10;;;10.00;99.90;;;;;;6193488;23;20013;-80
2023/12/31 12:11:48;;;;;;;3.88;0.75;;;10.10;99.90;;;;;;6165533;23;20456;-79
2023/12/31 12:14:13;;;;;;;5.10;1.10;;;10.10;99.90;;;;;;6214093;23;20011;-78
2023/12/31 12:16:42;;;;;;;2.65;0.98;;;;;;;;;;6194742;23;20035;-79
2023/12/31 12:19:10;;;;;;;2.67;0.90;;;10.20;99.90;;;;;;6220177;23;20027;-81
2023/12/31 12:21:37;;;;;;;3.88;1.10;;;9.40;99.90;;;;;;6194668;23;20009;-81
2023/12/31 12:24:04;;;;;;;5.50;1.42;;;10.00;99.90;;;;;;6195595;23;20013;-81
2023/12/31 12:26:31;;;;;;;4.05;1.00;;;;;;;;;;6190903;23;20016;-81
2023/12/31 12:28:57;;;;;;;3.95;1.10;;;10.00;99.90;;;;;;6218344;23;20036;-82
2023/12/31 12:31:23;;;;;;;5.40;0.93;;;9.80;99.90;;;;;;6191208;23;20467;-81
2023/12/31 12:33:53;;;;;;;4.95;0.80;;;11.30;99.90;;;;;;6191690;23;20050;-81
2023/12/31 12:36:19;;;;;;;3.83;1.20;;;9.80;99.90;;;;;;6165062;23;20034;-80
2023/12/31 12:38:48;;;;;;;2.97;1.00;;;10.60;99.90;;;;;;6190137;23;20123;-80
2023/12/31 12:41:22;;;;;;;6.05;1.30;;;8.90;99.90;;;;;;6217324;23;20448;-81
